createdAt,value
2022-08-19T00:02:17.884Z,24.81
2022-08-19T00:04:53.864Z,24.89
2022-08-19T00:07:25.528Z,24.95
2022-08-19T00:09:57.658Z,24.92
2022-08-19T00:12:29.749Z,24.88
2022-08-19T00:15:01.456Z,24.76
2022-08-19T00:17:33.114Z,24.76
2022-08-19T00:20:05.539Z,24.74
2022-08-19T00:22:37.767Z,24.79
2022-08-19T00:25:10.797Z,24.77
2022-08-19T00:27:42.934Z,24.83
2022-08-19T00:30:17.337Z,24.76
2022-08-19T00:32:48.722Z,24.61
2022-08-19T00:35:20.621Z,24.64
2022-08-19T00:37:54.009Z,24.52
2022-08-19T00:40:26.901Z,24.50
2022-08-19T00:42:58.973Z,24.42
2022-08-19T00:45:36.600Z,24.31
2022-08-19T00:48:14.767Z,24.24
2022-08-19T00:50:51.881Z,24.31
2022-08-19T00:53:27.693Z,24.38
2022-08-19T00:56:02.268Z,24.31
2022-08-19T00:58:38.169Z,24.23
2022-08-19T01:01:10.218Z,24.07
2022-08-19T01:03:57.938Z,23.95
2022-08-19T01:06:33.786Z,23.82
2022-08-19T01:09:06.978Z,23.72
2022-08-19T01:11:42.233Z,23.71
2022-08-19T01:14:14.788Z,23.76
2022-08-19T01:16:49.007Z,23.55
2022-08-19T01:19:28.972Z,23.52
2022-08-19T01:22:14.177Z,23.50
2022-08-19T01:24:49.813Z,23.57
2022-08-19T01:27:22.213Z,23.51
2022-08-19T01:29:53.860Z,23.56
2022-08-19T01:32:33.312Z,23.50
2022-08-19T01:35:06.124Z,23.44
2022-08-19T01:37:49.230Z,23.40
2022-08-19T01:40:23.044Z,23.36
2022-08-19T01:42:55.418Z,23.44
2022-08-19T01:45:29.659Z,23.42
2022-08-19T01:48:02.716Z,23.36
2022-08-19T01:50:35.687Z,23.19
2022-08-19T01:53:11.975Z,23.20
2022-08-19T01:55:47.004Z,23.24
2022-08-19T01:58:22.973Z,23.23
2022-08-19T02:00:55.594Z,23.14
2022-08-19T02:03:27.992Z,23.07
2022-08-19T02:06:02.889Z,23.02
2022-08-19T02:08:35.956Z,23.05
2022-08-19T02:11:08.969Z,23.12
2022-08-19T02:13:40.758Z,23.04
2022-08-19T02:16:13.153Z,22.97
2022-08-19T02:18:44.599Z,23.04
2022-08-19T02:21:16.980Z,23.02
2022-08-19T02:23:49.774Z,22.90
2022-08-19T02:26:21.750Z,22.87
2022-08-19T02:28:53.525Z,22.97
2022-08-19T02:31:28.878Z,22.99
2022-08-19T02:34:00.910Z,23.03
2022-08-19T02:36:32.775Z,22.97
2022-08-19T02:39:05.401Z,22.94
2022-08-19T02:41:37.969Z,23.05
2022-08-19T02:44:20.401Z,23.03
2022-08-19T02:47:02.092Z,23.07
2022-08-19T02:49:35.663Z,23.06
2022-08-19T02:52:07.655Z,23.01
2022-08-19T02:54:40.082Z,23.01
2022-08-19T02:57:11.671Z,22.94
2022-08-19T02:59:43.251Z,22.93
2022-08-19T03:02:14.672Z,22.85
2022-08-19T03:04:47.169Z,22.83
2022-08-19T03:07:19.963Z,22.85
2022-08-19T03:09:51.691Z,22.76
2022-08-19T03:12:23.516Z,22.70
2022-08-19T03:14:55.120Z,22.77
2022-08-19T03:17:26.506Z,22.84
2022-08-19T03:19:58.168Z,22.95
2022-08-19T03:22:31.403Z,22.92
2022-08-19T03:25:03.661Z,22.95
2022-08-19T03:27:36.825Z,22.83
2022-08-19T03:30:20.479Z,22.79
2022-08-19T03:33:00.194Z,22.75
2022-08-19T03:35:38.930Z,22.80
2022-08-19T03:38:16.748Z,22.68
2022-08-19T03:40:48.374Z,22.59
2022-08-19T03:43:20.466Z,22.72
2022-08-19T03:45:52.525Z,22.66
2022-08-19T03:48:24.097Z,22.57
2022-08-19T03:50:55.586Z,22.54
2022-08-19T03:53:27.307Z,22.74
2022-08-19T03:56:00.900Z,22.91
2022-08-19T03:58:33.167Z,23.10
2022-08-19T04:01:04.731Z,23.24
2022-08-19T04:03:37.250Z,23.31
2022-08-19T04:06:17.145Z,23.38
2022-08-19T04:08:50.756Z,23.72
2022-08-19T04:11:43.771Z,23.96
2022-08-19T04:14:18.273Z,24.17
2022-08-19T04:16:51.399Z,24.30
2022-08-19T04:19:24.301Z,24.35
2022-08-19T04:21:57.864Z,24.19
2022-08-19T04:24:29.619Z,24.04
2022-08-19T04:27:01.823Z,23.97
2022-08-19T04:29:34.023Z,23.86
2022-08-19T04:32:09.424Z,23.80
2022-08-19T04:35:02.355Z,23.81
2022-08-19T04:37:35.711Z,23.80
2022-08-19T04:40:27.910Z,23.95
2022-08-19T04:42:59.723Z,23.95
2022-08-19T04:45:39.747Z,24.22
2022-08-19T04:48:19.606Z,24.58
2022-08-19T04:51:00.101Z,24.73
2022-08-19T04:53:37.784Z,25.09
2022-08-19T04:56:13.561Z,25.49
2022-08-19T04:58:47.169Z,25.66
2022-08-19T05:01:24.168Z,25.78
2022-08-19T05:03:55.751Z,26.17
2022-08-19T05:06:27.843Z,26.54
2022-08-19T05:08:59.506Z,26.66
2022-08-19T05:11:34.010Z,26.73
2022-08-19T05:14:05.839Z,26.86
2022-08-19T05:16:37.584Z,27.02
2022-08-19T05:19:26.938Z,27.11
2022-08-19T05:22:15.942Z,27.02
2022-08-19T05:25:11.159Z,27.06
2022-08-19T05:27:41.169Z,27.22
2022-08-19T05:30:15.483Z,27.41
2022-08-19T05:32:47.127Z,27.53
2022-08-19T05:35:20.306Z,27.65
2022-08-19T05:37:54.913Z,27.72
2022-08-19T05:40:30.487Z,27.95
2022-08-19T05:43:02.039Z,28.11
2022-08-19T05:45:33.537Z,28.29
2022-08-19T05:48:05.146Z,28.71
2022-08-19T05:50:39.318Z,28.81
2022-08-19T05:53:11.862Z,28.88
2022-08-19T05:55:43.517Z,28.99
2022-08-19T05:58:14.999Z,29.15
2022-08-19T06:00:47.096Z,29.24
2022-08-19T06:03:18.640Z,29.38
2022-08-19T06:05:51.917Z,29.56
2022-08-19T06:08:34.557Z,29.66
2022-08-19T06:11:20.373Z,29.86
2022-08-19T06:13:59.448Z,30.26
2022-08-19T06:16:33.039Z,30.38
2022-08-19T06:19:08.695Z,30.27
2022-08-19T06:21:43.669Z,30.32
2022-08-19T06:24:18.618Z,30.44
2022-08-19T06:26:51.829Z,30.49
2022-08-19T06:29:27.070Z,30.50
2022-08-19T06:32:00.030Z,30.57
2022-08-19T06:34:34.766Z,30.70
2022-08-19T06:37:07.226Z,30.64
2022-08-19T06:39:42.397Z,30.68
2022-08-19T06:42:17.744Z,30.75
2022-08-19T06:44:53.146Z,30.88
2022-08-19T06:47:28.705Z,30.94
2022-08-19T06:50:05.386Z,30.87
2022-08-19T06:52:40.590Z,30.89
2022-08-19T06:55:13.056Z,30.90
2022-08-19T06:57:47.556Z,31.00
2022-08-19T07:00:19.878Z,31.12
2022-08-19T07:02:56.177Z,31.19
2022-08-19T07:05:32.516Z,31.16
2022-08-19T07:08:06.657Z,31.16
2022-08-19T07:10:38.330Z,31.30
2022-08-19T07:13:14.646Z,31.48
2022-08-19T07:15:47.740Z,31.64
2022-08-19T07:18:19.965Z,31.63
2022-08-19T07:20:51.694Z,31.62
2022-08-19T07:23:24.204Z,31.71
2022-08-19T07:25:56.234Z,31.70
2022-08-19T07:28:28.010Z,31.78
2022-08-19T07:30:59.512Z,32.04
2022-08-19T07:33:33.918Z,32.00
2022-08-19T07:36:07.948Z,31.82
2022-08-19T07:38:40.997Z,31.98
2022-08-19T07:41:14.774Z,32.02
2022-08-19T07:43:45.704Z,32.02
2022-08-19T07:46:18.118Z,32.11
2022-08-19T07:48:51.592Z,32.25
2022-08-19T07:51:36.759Z,32.52
2022-08-19T07:54:10.656Z,32.50
2022-08-19T07:56:42.690Z,32.50
2022-08-19T07:59:15.416Z,32.39
2022-08-19T08:01:47.660Z,32.18
2022-08-19T08:04:37.098Z,32.26
2022-08-19T08:07:31.476Z,32.34
2022-08-19T08:10:05.876Z,32.30
2022-08-19T08:13:09.183Z,32.44
2022-08-19T08:15:45.996Z,32.59
2022-08-19T08:18:17.582Z,32.53
2022-08-19T08:20:49.637Z,32.56
2022-08-19T08:23:27.552Z,32.56
2022-08-19T08:26:03.511Z,32.50
2022-08-19T08:28:35.175Z,32.50
2022-08-19T08:31:09.389Z,32.41
2022-08-19T08:33:43.114Z,32.37
2022-08-19T08:36:16.151Z,32.24
2022-08-19T08:38:48.515Z,32.23
2022-08-19T08:41:31.160Z,32.39
2022-08-19T08:44:05.442Z,32.45
2022-08-19T08:46:42.854Z,32.36
2022-08-19T08:49:29.011Z,32.33
2022-08-19T08:52:07.399Z,32.35
2022-08-19T08:54:48.979Z,32.33
2022-08-19T08:57:38.066Z,32.45
2022-08-19T09:00:18.090Z,32.52
2022-08-19T09:02:50.935Z,32.44
2022-08-19T09:05:25.993Z,32.60
2022-08-19T09:08:07.073Z,32.69
2022-08-19T09:10:44.692Z,32.69
2022-08-19T09:13:30.237Z,32.75
2022-08-19T09:16:14.391Z,32.54
2022-08-19T09:18:56.727Z,32.60
2022-08-19T09:21:33.393Z,32.83
2022-08-19T09:24:07.590Z,32.79
2022-08-19T09:26:51.823Z,32.71
2022-08-19T09:29:24.291Z,32.82
2022-08-19T09:31:56.551Z,32.82
2022-08-19T09:34:30.556Z,32.90
2022-08-19T09:37:10.179Z,32.91
2022-08-19T09:39:43.994Z,32.97
2022-08-19T09:42:16.448Z,32.99
2022-08-19T09:45:01.657Z,33.18
2022-08-19T09:47:40.527Z,33.18
2022-08-19T09:50:16.589Z,33.08
2022-08-19T09:52:55.403Z,32.91
2022-08-19T09:55:31.876Z,33.03
2022-08-19T09:58:05.597Z,32.98
2022-08-19T10:00:39.830Z,33.09
2022-08-19T10:03:13.220Z,33.09
2022-08-19T10:05:55.277Z,32.92
2022-08-19T10:08:29.292Z,32.87
2022-08-19T10:10:59.630Z,32.86
2022-08-19T10:13:51.490Z,33.12
2022-08-19T10:16:25.934Z,33.29
2022-08-19T10:19:03.702Z,33.30
2022-08-19T10:21:37.909Z,33.33
2022-08-19T10:24:12.362Z,33.38
2022-08-19T10:26:48.710Z,33.38
2022-08-19T10:29:32.470Z,33.30
2022-08-19T10:32:09.739Z,33.30
2022-08-19T10:34:48.033Z,33.43
2022-08-19T10:37:28.808Z,33.32
2022-08-19T10:40:05.166Z,33.35
2022-08-19T10:42:37.416Z,33.35
2022-08-19T10:45:10.979Z,33.43
2022-08-19T10:47:42.762Z,33.45
2022-08-19T10:50:29.023Z,33.54
2022-08-19T10:53:08.078Z,33.54
2022-08-19T10:55:58.432Z,33.49
2022-08-19T10:58:30.134Z,33.38
2022-08-19T11:01:02.869Z,33.43
2022-08-19T11:03:35.084Z,33.53
2022-08-19T11:06:09.369Z,33.53
2022-08-19T11:08:42.089Z,33.51
2022-08-19T11:11:17.747Z,33.52
2022-08-19T11:13:51.262Z,33.53
2022-08-19T11:16:26.683Z,33.53
2022-08-19T11:19:02.283Z,33.37
2022-08-19T11:21:36.151Z,33.40
2022-08-19T11:24:11.208Z,33.30
2022-08-19T11:26:43.932Z,33.24
2022-08-19T11:29:16.686Z,33.30
2022-08-19T11:31:52.112Z,33.44
2022-08-19T11:34:25.575Z,33.38
2022-08-19T11:36:59.967Z,33.30
2022-08-19T11:39:33.827Z,33.40
2022-08-19T11:42:27.535Z,33.48
2022-08-19T11:44:59.421Z,33.49
2022-08-19T11:47:31.872Z,33.28
2022-08-19T11:50:03.487Z,33.26
2022-08-19T11:52:35.478Z,33.46
2022-08-19T11:55:08.348Z,33.45
2022-08-19T11:57:42.320Z,33.37
2022-08-19T12:00:16.410Z,33.46
2022-08-19T12:02:47.856Z,33.53
2022-08-19T12:05:19.930Z,33.49
2022-08-19T12:07:51.404Z,33.38
2022-08-19T12:10:26.313Z,33.35
2022-08-19T12:12:59.027Z,33.47
2022-08-19T12:15:37.110Z,33.48
2022-08-19T12:18:10.233Z,33.47
2022-08-19T12:20:47.136Z,33.45
2022-08-19T12:23:18.973Z,33.56
2022-08-19T12:25:52.999Z,33.66
2022-08-19T12:28:27.238Z,33.71
2022-08-19T12:31:03.708Z,33.74
2022-08-19T12:33:35.339Z,33.76
2022-08-19T12:36:09.470Z,33.64
2022-08-19T12:38:44.231Z,33.66
2022-08-19T12:41:19.616Z,33.59
2022-08-19T12:43:51.940Z,33.52
2022-08-19T12:46:26.189Z,33.72
2022-08-19T12:48:59.202Z,33.78
2022-08-19T12:51:37.455Z,33.86
2022-08-19T12:54:10.840Z,33.81
2022-08-19T12:56:43.779Z,33.61
2022-08-19T12:59:18.034Z,33.48
2022-08-19T13:01:49.866Z,33.54
2022-08-19T13:04:22.660Z,33.74
2022-08-19T13:06:54.139Z,33.94
2022-08-19T13:09:26.944Z,34.04
2022-08-19T13:11:58.889Z,34.07
2022-08-19T13:14:31.805Z,34.10
2022-08-19T13:17:05.297Z,34.04
2022-08-19T13:19:38.475Z,34.05
2022-08-19T13:22:14.918Z,34.21
2022-08-19T13:24:47.542Z,34.14
2022-08-19T13:27:19.144Z,33.99
2022-08-19T13:30:07.983Z,33.98
2022-08-19T13:32:57.034Z,34.06
2022-08-19T13:35:30.098Z,34.09
2022-08-19T13:38:06.398Z,33.96
2022-08-19T13:40:43.872Z,34.08
2022-08-19T13:43:22.851Z,33.93
2022-08-19T13:45:57.692Z,33.95
2022-08-19T13:48:30.096Z,34.05
2022-08-19T13:51:01.549Z,34.07
2022-08-19T13:53:33.046Z,33.96
2022-08-19T13:56:07.429Z,33.84
2022-08-19T13:58:39.012Z,33.85
2022-08-19T14:01:11.682Z,33.85
2022-08-19T14:03:43.558Z,33.94
2022-08-19T14:06:14.927Z,34.03
2022-08-19T14:08:46.669Z,34.13
2022-08-19T14:11:26.083Z,34.25
2022-08-19T14:13:57.930Z,34.21
2022-08-19T14:16:31.749Z,34.14
2022-08-19T14:19:03.338Z,34.07
2022-08-19T14:21:41.025Z,34.02
2022-08-19T14:24:13.062Z,33.98
2022-08-19T14:26:45.899Z,33.87
2022-08-19T14:29:17.580Z,33.87
2022-08-19T14:31:49.774Z,33.85
2022-08-19T14:34:21.648Z,33.99
2022-08-19T14:36:53.877Z,34.10
2022-08-19T14:39:25.744Z,34.00
2022-08-19T14:41:57.950Z,34.03
2022-08-19T14:44:30.331Z,34.04
2022-08-19T14:47:02.058Z,34.05
2022-08-19T14:49:35.246Z,34.08
2022-08-19T14:52:13.135Z,34.18
2022-08-19T14:54:44.697Z,34.26
2022-08-19T14:57:17.777Z,34.31
2022-08-19T14:59:50.721Z,34.32
2022-08-19T15:02:34.534Z,34.21
2022-08-19T15:05:08.756Z,34.17
2022-08-19T15:07:41.217Z,34.09
2022-08-19T15:10:16.163Z,33.94
2022-08-19T15:12:51.759Z,33.89
2022-08-19T15:15:24.127Z,33.77
2022-08-19T15:18:11.195Z,33.69
2022-08-19T15:21:10.923Z,33.66
2022-08-19T15:23:45.496Z,33.73
2022-08-19T15:26:41.957Z,33.72
2022-08-19T15:29:17.117Z,33.83
2022-08-19T15:32:13.684Z,33.86
2022-08-19T15:34:48.068Z,33.80
2022-08-19T15:37:43.404Z,33.73
2022-08-19T15:40:38.863Z,33.76
2022-08-19T15:43:43.800Z,33.66
2022-08-19T15:46:41.553Z,33.62
2022-08-19T15:49:39.650Z,33.53
2022-08-19T15:52:28.483Z,33.49
2022-08-19T15:55:03.542Z,33.52
2022-08-19T15:57:53.089Z,33.47
2022-08-19T16:00:52.755Z,33.37
2022-08-19T16:04:04.799Z,33.32
2022-08-19T16:07:15.358Z,33.40
2022-08-19T16:10:26.850Z,33.33
2022-08-19T16:13:09.434Z,33.28
2022-08-19T16:15:43.519Z,33.21
2022-08-19T16:18:33.172Z,33.10
2022-08-19T16:21:24.367Z,33.10
2022-08-19T16:24:18.527Z,32.92
2022-08-19T16:27:11.559Z,32.74
2022-08-19T16:30:06.044Z,32.74
2022-08-19T16:33:02.114Z,32.56
2022-08-19T16:35:44.377Z,32.49
2022-08-19T16:38:36.059Z,32.37
2022-08-19T16:41:18.691Z,32.24
2022-08-19T16:43:55.193Z,32.15
2022-08-19T16:46:27.994Z,32.12
2022-08-19T16:48:59.633Z,32.04
2022-08-19T16:51:32.872Z,31.94
2022-08-19T16:54:04.923Z,31.82
2022-08-19T16:56:37.021Z,31.95
2022-08-19T16:59:08.802Z,32.13
2022-08-19T17:01:42.016Z,32.06
2022-08-19T17:04:14.578Z,31.96
2022-08-19T17:06:46.811Z,31.76
2022-08-19T17:09:19.310Z,31.67
2022-08-19T17:11:57.936Z,31.70
2022-08-19T17:14:29.830Z,31.61
2022-08-19T17:17:01.459Z,31.50
2022-08-19T17:19:32.858Z,31.51
2022-08-19T17:22:04.414Z,31.37
2022-08-19T17:24:36.512Z,31.31
2022-08-19T17:27:08.319Z,31.28
2022-08-19T17:29:41.918Z,31.37
2022-08-19T17:32:16.751Z,31.41
2022-08-19T17:34:56.846Z,31.36
2022-08-19T17:37:29.899Z,31.25
2022-08-19T17:40:03.115Z,31.01
2022-08-19T17:42:34.988Z,31.00
2022-08-19T17:45:07.212Z,30.98
2022-08-19T17:47:39.531Z,31.13
2022-08-19T17:50:13.275Z,31.25
2022-08-19T17:52:45.355Z,31.15
2022-08-19T17:55:16.886Z,31.09
2022-08-19T17:57:48.699Z,30.99
2022-08-19T18:00:22.029Z,31.01
2022-08-19T18:02:55.777Z,30.95
2022-08-19T18:05:31.040Z,30.83
2022-08-19T18:08:03.442Z,30.60
2022-08-19T18:10:35.423Z,30.54
2022-08-19T18:13:17.704Z,30.50
2022-08-19T18:15:50.591Z,30.50
2022-08-19T18:18:22.240Z,30.33
2022-08-19T18:20:53.810Z,30.16
2022-08-19T18:23:44.901Z,30.10
2022-08-19T18:26:17.423Z,30.14
2022-08-19T18:28:52.097Z,30.05
2022-08-19T18:31:24.959Z,30.04
2022-08-19T18:33:56.587Z,30.02
2022-08-19T18:36:52.545Z,30.11
2022-08-19T18:39:38.006Z,30.11
2022-08-19T18:42:35.302Z,30.14
2022-08-19T18:45:25.227Z,30.04
2022-08-19T18:48:27.081Z,29.97
2022-08-19T18:51:01.755Z,29.94
2022-08-19T18:53:35.928Z,29.84
2022-08-19T18:56:08.923Z,29.88
2022-08-19T18:58:42.385Z,29.81
2022-08-19T19:01:17.371Z,29.70
2022-08-19T19:03:53.098Z,29.65
2022-08-19T19:06:26.871Z,29.68
2022-08-19T19:08:59.261Z,29.77
2022-08-19T19:11:34.530Z,29.69
2022-08-19T19:14:16.267Z,29.62
2022-08-19T19:17:00.372Z,29.80
2022-08-19T19:19:33.205Z,29.92
2022-08-19T19:22:05.951Z,29.90
2022-08-19T19:24:38.917Z,29.58
2022-08-19T19:27:11.965Z,29.59
2022-08-19T19:29:45.682Z,29.57
2022-08-19T19:32:24.007Z,29.44
2022-08-19T19:34:56.092Z,29.46
2022-08-19T19:37:27.987Z,29.29
2022-08-19T19:39:59.967Z,29.32
2022-08-19T19:42:31.514Z,29.29
2022-08-19T19:45:05.473Z,29.19
2022-08-19T19:47:36.804Z,29.23
2022-08-19T19:50:17.047Z,29.28
2022-08-19T19:52:49.322Z,29.20
2022-08-19T19:55:21.087Z,29.00
2022-08-19T19:57:54.067Z,29.00
2022-08-19T20:00:26.665Z,29.00
2022-08-19T20:02:58.087Z,28.99
2022-08-19T20:05:29.945Z,29.05
2022-08-19T20:08:19.034Z,28.94
2022-08-19T20:10:50.646Z,28.96
2022-08-19T20:13:22.521Z,28.88
2022-08-19T20:15:54.166Z,28.82
2022-08-19T20:18:25.909Z,28.70
2022-08-19T20:20:58.557Z,28.57
2022-08-19T20:23:31.658Z,28.56
2022-08-19T20:26:03.383Z,28.55
2022-08-19T20:28:35.589Z,28.56
2022-08-19T20:31:09.050Z,28.45
2022-08-19T20:33:40.556Z,28.43
2022-08-19T20:36:12.106Z,28.38
2022-08-19T20:38:43.713Z,28.48
2022-08-19T20:41:15.768Z,28.49
2022-08-19T20:43:49.262Z,28.49
2022-08-19T20:46:20.996Z,28.39
2022-08-19T20:48:52.386Z,28.32
2022-08-19T20:51:24.434Z,28.30
2022-08-19T20:53:56.485Z,28.29
2022-08-19T20:56:27.990Z,28.27
2022-08-19T20:59:04.738Z,28.17
2022-08-19T21:01:36.462Z,28.33
2022-08-19T21:04:08.152Z,28.40
2022-08-19T21:06:40.239Z,28.46
2022-08-19T21:09:12.056Z,28.53
2022-08-19T21:11:44.500Z,28.45
2022-08-19T21:14:16.379Z,28.50
2022-08-19T21:16:47.952Z,28.32
2022-08-19T21:19:23.735Z,28.21
2022-08-19T21:21:55.742Z,28.19
2022-08-19T21:24:30.022Z,28.33
2022-08-19T21:27:03.625Z,28.29
2022-08-19T21:29:39.512Z,28.31
2022-08-19T21:32:14.028Z,28.19
2022-08-19T21:34:47.194Z,28.16
2022-08-19T21:37:25.018Z,28.13
2022-08-19T21:39:57.586Z,27.89
2022-08-19T21:42:30.137Z,27.83
2022-08-19T21:45:02.627Z,27.80
2022-08-19T21:47:34.398Z,27.76
2022-08-19T21:50:06.310Z,27.74
2022-08-19T21:52:38.787Z,27.85
2022-08-19T21:55:12.541Z,27.81
2022-08-19T21:57:44.117Z,27.84
2022-08-19T22:00:20.028Z,27.78
2022-08-19T22:02:53.017Z,27.76
2022-08-19T22:05:26.174Z,27.69
2022-08-19T22:07:59.279Z,27.72
2022-08-19T22:10:34.862Z,27.82
2022-08-19T22:13:08.994Z,27.94
2022-08-19T22:15:40.115Z,27.87
2022-08-19T22:18:11.899Z,27.92
2022-08-19T22:20:44.902Z,27.91
2022-08-19T22:23:16.355Z,27.93
2022-08-19T22:25:48.509Z,27.87
2022-08-19T22:28:27.916Z,27.86
2022-08-19T22:30:59.747Z,27.75
2022-08-19T22:33:32.796Z,27.68
2022-08-19T22:36:07.774Z,27.59
2022-08-19T22:38:39.796Z,27.48
2022-08-19T22:41:11.885Z,27.61
2022-08-19T22:43:43.880Z,27.73
2022-08-19T22:46:17.052Z,27.82
2022-08-19T22:49:00.589Z,27.90
2022-08-19T22:51:50.560Z,27.96
2022-08-19T22:54:23.431Z,28.02
2022-08-19T22:56:54.791Z,27.97
2022-08-19T22:59:26.266Z,27.89
2022-08-19T23:01:57.938Z,27.97
2022-08-19T23:04:29.302Z,27.95
2022-08-19T23:07:01.985Z,27.86
2022-08-19T23:09:33.621Z,27.65
2022-08-19T23:12:05.681Z,27.64
2022-08-19T23:14:37.949Z,27.49
2022-08-19T23:17:09.501Z,27.36
2022-08-19T23:19:40.990Z,27.30
2022-08-19T23:22:16.905Z,27.23
2022-08-19T23:24:48.470Z,27.12
2022-08-19T23:27:44.800Z,27.10
2022-08-19T23:30:28.405Z,26.97
2022-08-19T23:33:02.141Z,26.97
2022-08-19T23:35:37.461Z,27.02
2022-08-19T23:38:09.153Z,26.95
2022-08-19T23:40:41.016Z,27.05
2022-08-19T23:43:17.031Z,27.04
2022-08-19T23:45:58.021Z,27.07
2022-08-19T23:48:33.528Z,27.08
2022-08-19T23:51:07.716Z,26.97
2022-08-19T23:53:37.385Z,26.85
2022-08-19T23:56:11.244Z,26.85
2022-08-19T23:58:42.946Z,26.81
